Time;durP1;ratioP1;P1;durP2;ratioP2;P2;SDS_P1;SDS_P2;PMS_P1;PMS_P2;Temp;Humidity;BMP_temperature;BMP_pressure;BME280_temperature;BME280_humidity;BME280_pressure;Samples;Min_cycle;Max_cycle;Signal;HPM_P1;HPM_P2
2021/01/07 00:02:06;;;;;;;12.33;6.73;;;3.40;99.90;;;;;;4178859;28;20112;-82
2021/01/07 00:04:08;;;;;;;11.88;7.00;;;3.30;99.90;;;;;;4174240;28;20275;-82
2021/01/07 00:06:13;;;;;;;10.43;6.30;;;3.30;99.90;;;;;;4172260;28;20036;-82
2021/01/07 00:08:13;;;;;;;9.75;6.10;;;3.30;99.90;;;;;;4172922;28;20321;-82
2021/01/07 00:10:14;;;;;;;10.82;6.20;;;3.30;99.90;;;;;;4172772;28;20026;-82
2021/01/07 00:12:15;;;;;;;10.77;6.35;;;3.30;99.90;;;;;;4165295;28;20037;-82
2021/01/07 00:14:17;;;;;;;13.68;7.55;;;3.30;99.90;;;;;;4149891;28;20034;-82
2021/01/07 00:16:18;;;;;;;11.23;6.55;;;3.30;99.90;;;;;;4161088;28;20033;-82
2021/01/07 00:18:20;;;;;;;10.68;6.30;;;3.30;99.90;;;;;;4173611;28;20500;-82
2021/01/07 00:20:23;;;;;;;14.43;7.40;;;3.30;99.90;;;;;;4159809;28;20037;-82
2021/01/07 00:22:32;;;;;;;11.43;6.60;;;3.30;99.90;;;;;;4178593;28;20566;-82
2021/01/07 00:24:32;;;;;;;13.60;7.25;;;3.30;99.90;;;;;;4158430;28;20033;-82
2021/01/07 00:26:33;;;;;;;12.63;6.68;;;3.30;99.90;;;;;;4146419;28;20068;-83
2021/01/07 00:28:34;;;;;;;12.25;6.50;;;3.30;99.90;;;;;;4168275;28;20048;-83
2021/01/07 00:30:34;;;;;;;11.02;6.35;;;3.30;99.90;;;;;;4169726;28;20104;-83
2021/01/07 00:32:35;;;;;;;18.63;6.80;;;3.20;99.90;;;;;;4163959;28;20021;-83
2021/01/07 00:34:35;;;;;;;9.00;6.03;;;3.20;99.90;;;;;;4154504;28;20025;-83
2021/01/07 00:36:36;;;;;;;11.77;6.88;;;3.20;99.90;;;;;;4159494;28;20026;-82
2021/01/07 00:38:37;;;;;;;13.18;7.03;;;3.20;99.90;;;;;;4171723;28;20036;-82
2021/01/07 00:40:38;;;;;;;12.20;6.47;;;3.20;99.90;;;;;;4155840;28;20392;-82
2021/01/07 00:42:38;;;;;;;12.30;7.10;;;3.20;99.90;;;;;;4162894;28;20059;-82
2021/01/07 00:44:39;;;;;;;13.05;7.20;;;3.20;99.90;;;;;;4179444;28;20404;-82
2021/01/07 00:46:39;;;;;;;12.70;6.97;;;3.20;99.90;;;;;;4177056;28;20466;-82
2021/01/07 00:48:40;;;;;;;11.52;6.80;;;3.20;99.90;;;;;;4152579;28;20030;-83
2021/01/07 00:50:41;;;;;;;13.05;6.90;;;3.20;99.90;;;;;;4150122;28;21138;-83
2021/01/07 00:52:48;;;;;;;13.88;7.22;;;3.20;99.90;;;;;;4149938;28;20119;-82
2021/01/07 00:54:49;;;;;;;13.40;7.70;;;3.20;99.90;;;;;;4151433;28;20200;-82
2021/01/07 00:56:50;;;;;;;14.18;7.53;;;3.20;99.90;;;;;;4162588;28;20030;-82
2021/01/07 00:58:50;;;;;;;13.07;7.50;;;3.20;99.90;;;;;;4172203;28;20033;-82
2021/01/07 01:01:00;;;;;;;11.50;7.22;;;3.20;99.90;;;;;;4147337;28;20711;-82
2021/01/07 01:03:03;;;;;;;14.18;7.63;;;3.20;99.90;;;;;;4150561;28;20161;-82
2021/01/07 01:05:06;;;;;;;11.90;7.03;;;3.10;99.90;;;;;;4170878;28;20052;-82
2021/01/07 01:07:07;;;;;;;14.55;7.13;;;3.20;99.90;;;;;;4174288;28;20021;-82
2021/01/07 01:09:10;;;;;;;11.65;6.75;;;3.20;99.90;;;;;;4155145;28;20169;-82
2021/01/07 01:11:10;;;;;;;13.07;7.63;;;3.10;99.90;;;;;;4171948;28;20029;-82
2021/01/07 01:13:11;;;;;;;15.90;8.18;;;3.20;99.90;;;;;;4152513;28;20038;-82
2021/01/07 01:15:13;;;;;;;14.77;8.23;;;3.20;99.90;;;;;;4177059;28;20033;-82
2021/01/07 01:17:14;;;;;;;13.15;7.82;;;3.20;99.90;;;;;;4179266;28;20025;-82
2021/01/07 01:19:19;;;;;;;14.23;8.18;;;3.10;99.90;;;;;;4174520;28;20051;-82
2021/01/07 01:21:19;;;;;;;14.50;7.95;;;3.10;99.90;;;;;;4153966;28;20036;-82
2021/01/07 01:23:20;;;;;;;16.35;8.30;;;3.20;99.90;;;;;;4177145;28;20570;-82
2021/01/07 01:25:22;;;;;;;11.90;7.45;;;3.20;99.90;;;;;;4163988;28;20109;-82
2021/01/07 01:27:22;;;;;;;13.83;8.40;;;3.10;99.90;;;;;;4146123;28;20390;-82
2021/01/07 01:29:24;;;;;;;13.38;7.97;;;3.10;99.90;;;;;;4174018;28;20090;-82
2021/01/07 01:31:24;;;;;;;13.43;8.70;;;3.20;99.90;;;;;;4162134;28;20033;-82
2021/01/07 01:33:25;;;;;;;15.00;8.75;;;3.20;99.90;;;;;;4172397;28;20029;-82
2021/01/07 01:35:26;;;;;;;12.35;8.10;;;3.10;99.90;;;;;;4170706;28;20040;-82
2021/01/07 01:37:27;;;;;;;13.95;7.30;;;3.20;99.90;;;;;;4162541;28;20672;-82
2021/01/07 01:39:27;;;;;;;12.38;8.18;;;3.10;99.90;;;;;;4172399;28;20448;-82
2021/01/07 01:41:30;;;;;;;13.85;8.35;;;3.20;99.90;;;;;;4163721;28;20038;-82
2021/01/07 01:43:32;;;;;;;;;;;3.20;99.90;;;;;;4169582;28;20029;-82
2021/01/07 01:45:33;;;;;;;14.07;7.13;;;3.20;99.90;;;;;;4186772;28;19915;-82
2021/01/07 01:47:34;;;;;;;11.60;7.50;;;3.20;99.90;;;;;;4162352;28;20101;-82
2021/01/07 01:49:34;;;;;;;14.07;7.63;;;3.20;99.90;;;;;;4145346;28;20059;-82
2021/01/07 01:51:35;;;;;;;12.98;7.55;;;3.20;99.90;;;;;;4186433;28;20033;-82
2021/01/07 01:53:38;;;;;;;12.05;7.93;;;3.20;99.90;;;;;;4162196;28;20045;-82
2021/01/07 01:55:43;;;;;;;15.30;8.40;;;3.20;99.90;;;;;;4169411;28;20083;-82
2021/01/07 01:57:46;;;;;;;14.23;8.07;;;3.30;99.90;;;;;;4146126;28;20037;-82
2021/01/07 01:59:47;;;;;;;13.35;7.80;;;3.30;99.90;;;;;;4155686;28;20148;-82
2021/01/07 02:01:48;;;;;;;11.43;7.10;;;3.20;99.90;;;;;;4161816;28;20446;-82
2021/01/07 02:03:48;;;;;;;14.10;7.82;;;3.30;99.90;;;;;;4176546;28;20033;-82
2021/01/07 02:05:50;;;;;;;13.73;8.15;;;3.30;99.90;;;;;;4171564;28;20120;-82
2021/01/07 02:07:52;;;;;;;13.73;7.93;;;3.30;99.90;;;;;;4163418;28;20036;-82
2021/01/07 02:09:53;;;;;;;17.08;8.52;;;3.30;99.90;;;;;;4145359;28;20084;-82
2021/01/07 02:11:57;;;;;;;14.15;8.65;;;3.30;99.90;;;;;;4172223;28;20040;-83
2021/01/07 02:13:59;;;;;;;13.10;7.75;;;3.30;99.90;;;;;;4170433;28;20030;-83
2021/01/07 02:16:02;;;;;;;14.32;8.07;;;3.30;99.90;;;;;;4165378;28;20115;-82
2021/01/07 02:18:03;;;;;;;11.80;8.07;;;3.30;99.90;;;;;;4178357;28;20029;-82
2021/01/07 02:20:04;;;;;;;15.32;9.13;;;3.30;99.90;;;;;;4166612;28;20101;-82
2021/01/07 02:22:05;;;;;;;14.57;8.25;;;3.30;99.90;;;;;;4165718;28;20088;-82
2021/01/07 02:24:07;;;;;;;12.82;7.70;;;3.30;99.90;;;;;;4166865;28;20041;-82
2021/01/07 02:26:08;;;;;;;12.27;7.15;;;3.30;99.90;;;;;;4173667;28;20033;-82
2021/01/07 02:28:09;;;;;;;14.88;7.68;;;3.30;99.90;;;;;;4145651;28;20177;-82
2021/01/07 02:30:10;;;;;;;15.27;8.63;;;3.30;99.90;;;;;;4146962;28;20077;-82
2021/01/07 02:32:11;;;;;;;13.40;7.60;;;3.30;99.90;;;;;;4165227;28;20033;-82
2021/01/07 02:34:11;;;;;;;13.40;8.23;;;3.30;99.90;;;;;;4146368;28;20092;-82
2021/01/07 02:36:16;;;;;;;15.03;7.70;;;3.30;99.90;;;;;;4168066;28;20678;-82
2021/01/07 02:38:16;;;;;;;16.80;8.95;;;3.30;99.90;;;;;;4178416;28;20048;-82
2021/01/07 02:40:17;;;;;;;15.20;8.98;;;3.30;99.90;;;;;;4178367;28;20029;-82
2021/01/07 02:42:18;;;;;;;11.98;7.88;;;3.30;99.90;;;;;;4172739;28;20188;-82
2021/01/07 02:44:20;;;;;;;13.55;8.27;;;3.20;99.90;;;;;;4167805;28;20036;-82
2021/01/07 02:46:21;;;;;;;13.35;8.48;;;3.30;99.90;;;;;;4170568;28;20037;-82
2021/01/07 02:48:22;;;;;;;13.63;8.13;;;3.30;99.90;;;;;;4166261;28;20029;-82
2021/01/07 02:50:38;;;;;;;11.83;7.97;;;3.30;99.90;;;;;;4156463;28;20144;-82
2021/01/07 02:52:41;;;;;;;15.60;8.05;;;3.30;99.90;;;;;;4167914;28;20036;-82
2021/01/07 02:54:42;;;;;;;12.82;8.35;;;3.30;99.90;;;;;;4148589;28;20521;-82
2021/01/07 02:56:49;;;;;;;17.40;8.68;;;3.30;99.90;;;;;;4174706;28;20145;-82
2021/01/07 02:58:50;;;;;;;16.98;9.13;;;3.30;99.90;;;;;;4181555;28;20064;-82
2021/01/07 03:00:51;;;;;;;16.67;9.00;;;3.40;99.90;;;;;;4172885;28;20037;-82
2021/01/07 03:02:51;;;;;;;13.90;8.73;;;3.30;99.90;;;;;;4175207;28;20107;-82
2021/01/07 03:04:52;;;;;;;15.23;8.52;;;3.30;99.90;;;;;;4157559;28;20409;-82
2021/01/07 03:06:53;;;;;;;14.45;8.73;;;3.30;99.90;;;;;;4148740;28;20038;-82
2021/01/07 03:08:54;;;;;;;16.27;8.85;;;3.30;99.90;;;;;;4147865;28;20037;-82
2021/01/07 03:10:54;;;;;;;15.13;8.98;;;3.30;99.90;;;;;;4163574;28;20043;-82
2021/01/07 03:12:55;;;;;;;14.55;9.48;;;3.30;99.90;;;;;;4175504;28;20063;-82
2021/01/07 03:14:56;;;;;;;16.38;9.00;;;3.30;99.90;;;;;;4177105;28;20173;-82
2021/01/07 03:16:59;;;;;;;19.23;9.30;;;3.30;99.90;;;;;;4157056;28;20049;-82
2021/01/07 03:19:01;;;;;;;15.20;8.88;;;3.30;99.90;;;;;;4164752;28;20683;-82
2021/01/07 03:21:02;;;;;;;14.55;8.65;;;3.30;99.90;;;;;;4178126;28;20479;-82
2021/01/07 03:23:03;;;;;;;17.05;9.63;;;3.30;99.90;;;;;;4157182;28;20060;-82
2021/01/07 03:25:04;;;;;;;13.35;8.35;;;3.30;99.90;;;;;;4149942;28;20108;-82
2021/01/07 03:27:05;;;;;;;16.17;9.52;;;3.40;99.90;;;;;;4167856;28;20033;-83
2021/01/07 03:29:05;;;;;;;15.07;9.13;;;3.40;99.90;;;;;;4148256;28;20057;-82
2021/01/07 03:31:06;;;;;;;15.32;9.00;;;3.40;99.90;;;;;;4176233;28;20052;-82
2021/01/07 03:33:06;;;;;;;16.58;9.05;;;3.30;99.90;;;;;;4150542;28;20033;-82
2021/01/07 03:35:15;;;;;;;15.20;9.75;;;3.40;99.90;;;;;;4164548;28;20103;-83
2021/01/07 03:37:16;;;;;;;16.52;8.98;;;3.40;99.90;;;;;;4177487;28;20033;-82
2021/01/07 03:39:17;;;;;;;16.92;9.10;;;3.40;99.90;;;;;;4180368;28;20067;-82
2021/01/07 03:41:18;;;;;;;17.27;10.20;;;3.40;99.90;;;;;;4156987;28;20022;-82
2021/01/07 03:43:18;;;;;;;15.75;9.07;;;3.40;99.90;;;;;;4155338;28;20092;-82
2021/01/07 03:45:27;;;;;;;17.33;9.57;;;3.40;99.90;;;;;;4152842;28;20041;-83
2021/01/07 03:47:28;;;;;;;14.88;9.00;;;3.40;99.90;;;;;;4164478;28;20053;-83
2021/01/07 03:49:31;;;;;;;15.68;8.73;;;3.40;99.90;;;;;;4171847;28;20056;-82
2021/01/07 03:51:32;;;;;;;15.70;9.15;;;3.40;99.90;;;;;;4171691;28;20032;-82
2021/01/07 03:53:33;;;;;;;13.82;8.40;;;3.40;99.90;;;;;;4163936;28;20037;-82
2021/01/07 03:55:34;;;;;;;16.65;9.57;;;3.40;99.90;;;;;;4163850;28;20030;-82
2021/01/07 03:57:34;;;;;;;19.42;9.27;;;3.50;99.90;;;;;;4188408;28;20029;-83
2021/01/07 03:59:35;;;;;;;21.38;9.95;;;3.40;99.90;;;;;;4164316;28;20108;-83
2021/01/07 04:01:50;;;;;;;13.43;8.32;;;3.50;99.90;;;;;;4182405;28;20031;-83
2021/01/07 04:03:51;;;;;;;15.02;9.00;;;3.50;99.90;;;;;;4179597;28;20644;-83
2021/01/07 04:05:52;;;;;;;18.35;9.52;;;3.50;99.90;;;;;;4155443;28;20079;-82
2021/01/07 04:07:52;;;;;;;14.20;9.50;;;3.50;99.90;;;;;;4163743;28;20033;-82
2021/01/07 04:09:53;;;;;;;17.73;9.32;;;3.50;99.90;;;;;;4147534;28;20108;-82
2021/01/07 04:11:53;;;;;;;14.20;9.10;;;3.50;99.90;;;;;;4151632;28;20042;-82
2021/01/07 04:13:54;;;;;;;13.75;8.10;;;3.50;99.90;;;;;;4147306;28;20033;-82
2021/01/07 04:15:55;;;;;;;16.05;9.38;;;3.50;99.90;;;;;;4184158;28;20119;-82
2021/01/07 04:17:55;;;;;;;15.43;9.15;;;3.50;99.90;;;;;;4170667;28;20043;-82
2021/01/07 04:19:56;;;;;;;13.85;8.90;;;3.60;99.90;;;;;;4174771;28;20025;-82
2021/01/07 04:22:00;;;;;;;12.90;8.45;;;3.60;99.90;;;;;;4168210;28;20386;-82
2021/01/07 04:24:07;;;;;;;14.27;9.15;;;3.50;99.90;;;;;;4174834;28;20456;-82
2021/01/07 04:26:08;;;;;;;15.70;9.45;;;3.60;99.90;;;;;;4154093;28;20026;-82
2021/01/07 04:28:09;;;;;;;16.27;9.85;;;3.60;99.90;;;;;;4157350;28;20044;-82
2021/01/07 04:30:10;;;;;;;16.25;8.93;;;3.50;99.90;;;;;;4177474;28;20146;-82
2021/01/07 04:32:11;;;;;;;17.95;9.93;;;3.50;99.90;;;;;;4147016;28;20060;-82
2021/01/07 04:34:12;;;;;;;16.27;9.00;;;3.50;99.90;;;;;;4170646;28;20029;-82
2021/01/07 04:36:12;;;;;;;13.15;8.30;;;3.60;99.90;;;;;;4170830;28;20420;-82
2021/01/07 04:38:13;;;;;;;15.68;8.98;;;3.50;99.90;;;;;;4174876;28;20392;-82
2021/01/07 04:40:14;;;;;;;13.80;8.88;;;3.50;99.90;;;;;;4175433;28;20037;-82
2021/01/07 04:42:15;;;;;;;13.68;8.40;;;3.60;99.90;;;;;;4143979;28;20127;-82
2021/01/07 04:44:16;;;;;;;13.55;8.88;;;3.60;99.90;;;;;;4161657;28;20037;-82
2021/01/07 04:46:16;;;;;;;14.77;9.32;;;3.60;99.90;;;;;;4166309;28;20056;-82
2021/01/07 04:48:18;;;;;;;16.13;9.35;;;3.60;99.90;;;;;;4152060;28;20030;-82
2021/01/07 04:50:19;;;;;;;17.60;10.43;;;3.50;99.90;;;;;;4176617;28;20472;-82
2021/01/07 04:52:19;;;;;;;17.55;9.73;;;3.60;99.90;;;;;;4172036;28;20040;-82
2021/01/07 04:54:20;;;;;;;14.05;8.80;;;3.50;99.90;;;;;;4145361;28;20034;-82
2021/01/07 04:56:52;;;;;;;17.08;9.90;;;3.60;99.90;;;;;;4168021;28;20040;-82
2021/01/07 04:58:52;;;;;;;15.43;9.20;;;3.50;99.90;;;;;;4148184;28;20042;-82
2021/01/07 05:00:53;;;;;;;14.40;8.98;;;3.50;99.90;;;;;;4161670;28;20037;-82
2021/01/07 05:03:06;;;;;;;14.88;9.65;;;3.50;99.90;;;;;;4178628;28;20048;-82
2021/01/07 05:05:07;;;;;;;;;;;3.50;99.90;;;;;;4176611;28;20025;-82
2021/01/07 05:07:08;;;;;;;14.50;8.80;;;3.50;99.90;;;;;;4174049;28;19909;-82
2021/01/07 05:09:09;;;;;;;16.23;10.25;;;3.50;99.90;;;;;;4174932;28;20021;-82
2021/01/07 05:11:09;;;;;;;15.00;10.10;;;3.50;99.90;;;;;;4154901;28;20026;-82
2021/01/07 05:13:10;;;;;;;14.65;9.25;;;3.40;99.90;;;;;;4174908;28;20025;-82
2021/01/07 05:15:11;;;;;;;15.30;9.30;;;3.40;99.90;;;;;;4159052;28;20041;-82
2021/01/07 05:17:16;;;;;;;14.73;8.75;;;3.40;99.90;;;;;;4177811;28;20021;-82
2021/01/07 05:19:16;;;;;;;14.68;8.82;;;3.50;99.90;;;;;;4178089;28;20021;-81
2021/01/07 05:21:17;;;;;;;16.63;9.10;;;3.40;99.90;;;;;;4155016;28;20026;-82
2021/01/07 05:23:20;;;;;;;15.32;9.57;;;3.40;99.90;;;;;;4145915;28;20041;-81
2021/01/07 05:25:20;;;;;;;;;;;3.40;99.90;;;;;;4146017;28;20057;-82
2021/01/07 05:27:22;;;;;;;16.50;9.20;;;3.40;99.90;;;;;;4164788;28;20316;-82
2021/01/07 05:29:23;;;;;;;18.73;10.77;;;3.40;99.90;;;;;;4152303;28;20041;-82
2021/01/07 05:31:26;;;;;;;18.90;10.73;;;3.40;99.90;;;;;;4162078;28;20068;-82
2021/01/07 05:33:27;;;;;;;17.88;10.60;;;3.40;99.90;;;;;;4146832;28;20084;-82
2021/01/07 05:35:29;;;;;;;16.90;10.20;;;3.50;99.90;;;;;;4162612;28;20108;-82
2021/01/07 05:37:34;;;;;;;18.33;10.45;;;3.50;99.90;;;;;;4161822;28;20512;-82
2021/01/07 05:39:34;;;;;;;17.30;10.40;;;3.50;99.90;;;;;;4149340;28;20132;-82
2021/01/07 05:41:36;;;;;;;17.25;10.77;;;3.50;99.90;;;;;;4161726;28;20040;-82
2021/01/07 05:43:36;;;;;;;18.25;11.68;;;3.50;99.90;;;;;;4161849;28;20038;-82
2021/01/07 05:45:39;;;;;;;18.98;10.88;;;3.50;99.90;;;;;;4145719;28;20034;-82
2021/01/07 05:47:44;;;;;;;19.50;11.35;;;3.50;99.90;;;;;;4161212;28;20371;-82
2021/01/07 05:49:45;;;;;;;20.42;11.68;;;3.50;99.90;;;;;;4162986;28;20029;-82
2021/01/07 05:51:50;;;;;;;17.75;11.07;;;3.50;99.90;;;;;;4178262;28;20037;-82
2021/01/07 05:53:56;;;;;;;19.58;11.48;;;3.50;99.90;;;;;;4153496;28;20445;-82
2021/01/07 05:56:12;;;;;;;18.45;10.70;;;3.40;99.90;;;;;;4167244;28;20038;-82
2021/01/07 05:58:40;;;;;;;18.05;11.23;;;3.40;99.90;;;;;;4154591;28;20040;-82
2021/01/07 06:00:44;;;;;;;18.60;10.77;;;3.40;99.90;;;;;;4161800;28;20083;-82
2021/01/07 06:02:55;;;;;;;18.70;11.32;;;3.40;99.90;;;;;;4161240;28;20914;-82
2021/01/07 06:05:21;;;;;;;17.95;10.13;;;3.40;99.90;;;;;;4167482;28;20025;-82
2021/01/07 06:07:25;;;;;;;17.52;9.63;;;3.40;99.90;;;;;;4176650;28;20021;-82
2021/01/07 06:09:36;;;;;;;16.52;9.88;;;3.40;99.90;;;;;;4175208;28;20029;-82
2021/01/07 06:11:40;;;;;;;18.63;10.48;;;3.40;99.90;;;;;;4169069;28;20025;-82
2021/01/07 06:13:43;;;;;;;18.73;10.73;;;3.30;99.90;;;;;;4149496;28;20034;-82
2021/01/07 06:15:48;;;;;;;;;;;3.40;99.90;;;;;;4141084;28;20037;-82
2021/01/07 06:17:51;;;;;;;18.10;9.82;;;3.40;99.90;;;;;;4146203;28;20071;-82
2021/01/07 06:19:53;;;;;;;16.77;10.38;;;3.30;99.90;;;;;;4156816;28;20025;-82
2021/01/07 06:21:54;;;;;;;18.27;11.32;;;3.30;99.90;;;;;;4168014;28;20029;-82
2021/01/07 06:24:07;;;;;;;18.48;10.85;;;3.40;99.90;;;;;;4166183;28;20040;-82
2021/01/07 06:26:27;;;;;;;;;;;3.40;99.90;;;;;;4156825;28;20037;-82
2021/01/07 06:28:36;;;;;;;;;;;3.40;99.90;;;;;;4169340;28;19941;-82
2021/01/07 06:30:38;;;;;;;;;;;3.40;99.90;;;;;;4194034;28;20573;-82
2021/01/07 06:32:42;;;;;;;;;;;3.40;99.90;;;;;;4171529;28;20465;-82
2021/01/07 06:34:46;;;;;;;;;;;3.40;99.90;;;;;;4149368;28;19909;-82
2021/01/07 06:36:46;;;;;;;;;;;3.40;99.90;;;;;;4167722;28;19909;-82
2021/01/07 06:38:48;;;;;;;;;;;3.40;99.90;;;;;;4150038;28;20055;-82
2021/01/07 06:41:01;;;;;;;;;;;3.40;99.90;;;;;;4170733;28;19947;-82
2021/01/07 06:43:10;;;;;;;;;;;3.40;99.90;;;;;;4171119;28;20032;-82
2021/01/07 06:45:11;;;;;;;;;;;3.40;99.90;;;;;;4168898;28;20023;-82
2021/01/07 06:47:48;;;;;;;;;;;3.40;99.90;;;;;;4147825;28;19913;-81
2021/01/07 06:49:55;;;;;;;;;;;3.40;99.90;;;;;;4148906;28;20083;-82
2021/01/07 06:52:05;;;;;;;;;;;3.40;99.90;;;;;;4186669;28;20392;-81
2021/01/07 06:54:06;;;;;;;;;;;3.40;99.90;;;;;;4159919;28;19956;-81
2021/01/07 06:56:22;;;;;;;;;;;3.50;99.90;;;;;;4153199;28;19910;-81
2021/01/07 06:58:26;;;;;;;;;;;3.40;99.90;;;;;;4184753;28;19967;-82
2021/01/07 07:00:35;;;;;;;;;;;3.50;99.90;;;;;;4168147;28;19925;-82
2021/01/07 07:03:00;;;;;;;;;;;3.50;99.90;;;;;;4150339;28;20337;-82
2021/01/07 07:06:31;;;;;;;;;;;3.50;99.90;;;;;;4167148;28;20715;-70
2021/01/07 07:08:35;;;;;;;;;;;3.50;99.90;;;;;;4175951;28;19965;-70
2021/01/07 07:10:36;;;;;;;;;;;3.50;99.90;;;;;;4200038;28;20297;-70
2021/01/07 07:12:37;;;;;;;;;;;3.50;99.90;;;;;;4168955;28;19952;-70
2021/01/07 07:14:39;;;;;;;;;;;3.50;99.90;;;;;;4172206;28;19909;-70
2021/01/07 07:16:40;;;;;;;;;;;3.50;99.90;;;;;;4191450;28;19916;-70
2021/01/07 07:18:40;;;;;;;;;;;3.50;99.90;;;;;;4197620;28;19916;-70
2021/01/07 07:20:45;;;;;;;;;;;3.50;99.90;;;;;;4194271;28;19978;-70
2021/01/07 07:22:46;;;;;;;;;;;3.50;99.90;;;;;;4219187;27;19919;-70
2021/01/07 07:24:50;;;;;;;;;;;3.50;99.90;;;;;;4200182;28;19924;-70
2021/01/07 07:26:51;;;;;;;;;;;3.50;99.90;;;;;;4199793;28;20517;-70
2021/01/07 07:28:52;;;;;;;;;;;3.50;99.90;;;;;;4220771;28;20439;-70
2021/01/07 07:30:53;;;;;;;;;;;3.50;99.90;;;;;;4196334;28;20097;-70
2021/01/07 07:32:54;;;;;;;;;;;3.50;99.90;;;;;;4199857;28;20050;-70
2021/01/07 07:34:55;;;;;;;;;;;3.50;99.90;;;;;;4199566;28;19923;-70
2021/01/07 07:36:55;;;;;;;;;;;3.40;99.90;;;;;;4199780;28;19948;-70
2021/01/07 07:38:56;;;;;;;;;;;3.50;99.90;;;;;;4199596;28;20403;-70
2021/01/07 07:41:00;;;;;;;;;;;3.50;99.90;;;;;;4199316;28;20366;-70
2021/01/07 07:43:01;;;;;;;;;;;3.40;99.90;;;;;;4181650;28;19966;-70
2021/01/07 07:45:02;;;;;;;;;;;3.40;99.90;;;;;;4180844;28;19924;-70
2021/01/07 07:47:05;;;;;;;;;;;3.40;99.90;;;;;;4177843;28;19919;-70
2021/01/07 07:49:10;;;;;;;;;;;3.40;99.90;;;;;;4184724;28;20369;-71
2021/01/07 07:51:11;;;;;;;;;;;3.40;99.90;;;;;;4179003;28;19948;-70
2021/01/07 07:53:13;;;;;;;;;;;3.40;99.90;;;;;;4182792;28;19917;-70
2021/01/07 07:55:13;;;;;;;;;;;3.40;99.90;;;;;;4181083;28;19917;-70
2021/01/07 07:57:17;;;;;;;;;;;3.40;99.90;;;;;;4183901;28;19913;-70
2021/01/07 07:59:18;;;;;;;;;;;3.40;99.90;;;;;;4181365;28;19920;-70
2021/01/07 08:01:21;;;;;;;;;;;3.40;99.90;;;;;;4177759;28;19917;-70
2021/01/07 08:03:25;;;;;;;;;;;3.30;99.90;;;;;;4182927;28;19916;-70
2021/01/07 08:05:27;;;;;;;;;;;3.30;99.90;;;;;;4179404;28;19979;-70
2021/01/07 08:07:27;;;;;;;;;;;3.40;99.90;;;;;;4179068;28;19982;-70
2021/01/07 08:09:28;;;;;;;;;;;3.30;99.90;;;;;;4181919;28;19920;-70
2021/01/07 08:11:39;;;;;;;;;;;3.30;99.90;;;;;;4158094;28;19959;-70
2021/01/07 08:13:39;;;;;;;;;;;3.30;99.90;;;;;;4180998;28;19913;-70
2021/01/07 08:15:45;;;;;;;;;;;3.20;99.90;;;;;;4211575;28;20136;-70
2021/01/07 08:17:46;;;;;;;;;;;3.20;99.90;;;;;;4170247;28;20376;-70
2021/01/07 08:19:46;;;;;;;;;;;3.20;99.90;;;;;;4167024;28;19952;-70
2021/01/07 08:21:51;;;;;;;;;;;3.20;99.90;;;;;;4170613;28;20007;-70
2021/01/07 08:23:51;;;;;;;;;;;3.20;99.90;;;;;;4163307;28;19913;-70
2021/01/07 08:25:52;;;;;;;;;;;3.20;99.90;;;;;;4169988;28;20325;-70
2021/01/07 08:27:55;;;;;;;;;;;3.30;99.90;;;;;;4170642;28;20402;-70
2021/01/07 08:29:57;;;;;;;;;;;3.20;99.90;;;;;;4171425;28;20425;-70
2021/01/07 08:31:59;;;;;;;;;;;3.30;99.90;;;;;;4170666;28;19921;-70
2021/01/07 08:34:01;;;;;;;;;;;3.30;99.90;;;;;;4171490;28;19913;-70
2021/01/07 08:36:03;;;;;;;;;;;3.30;99.90;;;;;;4168340;28;19917;-70
2021/01/07 08:38:03;;;;;;;;;;;3.20;99.90;;;;;;4163628;28;19921;-70
2021/01/07 08:40:10;;;;;;;;;;;3.20;99.90;;;;;;4169970;28;19920;-70
2021/01/07 08:42:14;;;;;;;;;;;3.20;99.90;;;;;;4161751;28;19921;-70
2021/01/07 08:44:15;;;;;;;;;;;3.20;99.90;;;;;;4170520;28;19917;-70
2021/01/07 08:46:17;;;;;;;;;;;3.30;99.90;;;;;;4174188;28;19925;-70
2021/01/07 08:48:20;;;;;;;;;;;3.30;99.90;;;;;;4172617;28;19912;-70
2021/01/07 08:50:21;;;;;;;;;;;3.30;99.90;;;;;;4178850;28;20300;-70
2021/01/07 08:52:21;;;;;;;;;;;3.30;99.90;;;;;;4143188;28;19916;-72
2021/01/07 08:54:25;;;;;;;;;;;3.30;99.90;;;;;;4175058;28;19920;-72
2021/01/07 08:56:28;;;;;;;;;;;3.30;99.90;;;;;;4173960;28;20367;-72
2021/01/07 08:58:29;;;;;;;;;;;3.30;99.90;;;;;;4165599;28;19920;-72
2021/01/07 09:00:32;;;;;;;;;;;3.40;99.90;;;;;;4171501;28;19917;-72
2021/01/07 09:02:33;;;;;;;;;;;3.30;99.90;;;;;;4171208;28;19920;-72
2021/01/07 09:04:33;;;;;;;;;;;3.30;99.90;;;;;;4173378;28;19917;-72
2021/01/07 09:06:34;;;;;;;;;;;3.40;99.90;;;;;;4166145;28;20371;-72
2021/01/07 09:08:34;;;;;;;;;;;3.30;99.90;;;;;;4164180;28;20039;-72
2021/01/07 09:10:35;;;;;;;;;;;3.40;99.90;;;;;;4186020;28;19966;-72
2021/01/07 09:12:37;;;;;;;;;;;3.30;99.90;;;;;;4137982;28;19960;-72
2021/01/07 09:14:44;;;;;;;;;;;3.30;99.90;;;;;;4170699;28;19916;-72
2021/01/07 09:17:00;;;;;;;;;;;3.40;99.90;;;;;;4178657;28;19916;-71
2021/01/07 09:19:04;;;;;;;;;;;3.40;99.90;;;;;;4168624;28;19919;-72
2021/01/07 09:21:14;;;;;;;;;;;3.40;99.90;;;;;;4151755;28;19967;-71
2021/01/07 09:23:15;;;;;;;;;;;3.40;99.90;;;;;;4158435;28;20003;-72
2021/01/07 09:25:17;;;;;;;;;;;3.40;99.90;;;;;;4146247;28;19932;-72
2021/01/07 09:27:19;;;;;;;;;;;3.40;99.90;;;;;;4139108;28;20948;-72
2021/01/07 09:29:20;;;;;;;;;;;3.30;99.90;;;;;;4132389;28;19921;-72
2021/01/07 09:31:20;;;;;;;;;;;3.40;99.90;;;;;;4181914;28;19986;-72
2021/01/07 09:33:22;;;;;;;;;;;3.40;99.90;;;;;;4177801;28;20561;-72
2021/01/07 09:35:23;;;;;;;;;;;3.30;99.90;;;;;;4172646;28;19913;-72
2021/01/07 09:37:23;;;;;;;;;;;3.40;99.90;;;;;;4168059;28;21310;-72
2021/01/07 09:39:24;;;;;;;;;;;3.30;99.90;;;;;;4172352;28;19913;-71
2021/01/07 09:41:27;;;;;;;;;;;3.30;99.90;;;;;;4170421;28;19928;-71
2021/01/07 09:43:32;;;;;;;;;;;3.40;99.90;;;;;;4171873;28;19919;-71
2021/01/07 09:45:33;;;;;;;;;;;3.40;99.90;;;;;;4167957;28;19925;-72
2021/01/07 09:47:36;;;;;;;;;;;3.40;99.90;;;;;;4171327;28;20062;-71
2021/01/07 09:49:38;;;;;;;;;;;3.40;99.90;;;;;;4154365;28;20454;-72
2021/01/07 09:51:40;;;;;;;;;;;3.40;99.90;;;;;;4143061;28;19913;-71
2021/01/07 09:55:07;;;;;;;12.23;8.18;;;3.40;99.90;;;;;;4144176;27;20434;-71
2021/01/07 09:57:09;;;;;;;14.27;8.95;;;3.40;99.90;;;;;;4154166;28;20038;-72
2021/01/07 09:59:11;;;;;;;12.90;9.00;;;3.40;99.90;;;;;;4154160;28;20498;-72
2021/01/07 10:01:11;;;;;;;15.15;9.95;;;3.50;99.90;;;;;;4146885;28;20128;-71
2021/01/07 10:03:12;;;;;;;14.68;9.48;;;3.40;99.90;;;;;;4167339;28;20049;-70
2021/01/07 10:05:13;;;;;;;13.05;9.00;;;3.40;99.90;;;;;;4146819;28;20025;-71
2021/01/07 10:07:14;;;;;;;12.15;8.15;;;3.50;99.90;;;;;;4140858;28;20037;-71
2021/01/07 10:09:15;;;;;;;17.33;10.77;;;3.50;99.90;;;;;;4153484;28;20477;-72
2021/01/07 10:11:16;;;;;;;14.15;8.88;;;3.50;99.90;;;;;;4146970;28;20052;-72
2021/01/07 10:13:17;;;;;;;14.18;9.45;;;3.50;99.90;;;;;;4149857;28;20026;-72
2021/01/07 10:15:21;;;;;;;15.10;9.88;;;3.50;99.90;;;;;;4153526;28;20636;-71
2021/01/07 10:17:22;;;;;;;14.25;9.63;;;3.60;99.90;;;;;;4184278;28;20029;-72
2021/01/07 10:19:24;;;;;;;18.55;11.18;;;3.60;99.90;;;;;;4143344;28;20072;-71
2021/01/07 10:21:26;;;;;;;16.70;10.70;;;3.60;99.90;;;;;;4154967;28;20508;-70
2021/01/07 10:23:29;;;;;;;19.15;11.27;;;3.60;99.90;;;;;;4129282;28;20426;-72
2021/01/07 10:25:30;;;;;;;19.50;12.07;;;3.70;99.90;;;;;;4178687;28;20073;-72
2021/01/07 10:27:31;;;;;;;17.30;10.82;;;3.60;99.90;;;;;;4154384;28;20567;-71
2021/01/07 10:29:33;;;;;;;16.90;11.02;;;3.60;99.90;;;;;;4151085;28;20447;-72
2021/01/07 10:31:34;;;;;;;16.10;10.43;;;3.70;99.90;;;;;;4150277;28;20087;-72
2021/01/07 10:33:35;;;;;;;17.42;10.98;;;3.70;99.90;;;;;;4152326;28;20460;-71
2021/01/07 10:35:39;;;;;;;16.35;10.23;;;3.70;99.90;;;;;;4154938;28;20259;-72
2021/01/07 10:37:42;;;;;;;18.90;11.90;;;3.70;99.90;;;;;;4152651;28;20223;-70
2021/01/07 10:39:43;;;;;;;15.38;10.10;;;3.70;99.90;;;;;;4149202;28;20037;-70
2021/01/07 10:41:48;;;;;;;16.70;10.75;;;3.70;99.90;;;;;;4146019;28;20397;-70
2021/01/07 10:43:48;;;;;;;15.82;9.88;;;3.80;99.90;;;;;;4155203;28;20678;-69
2021/01/07 10:45:53;;;;;;;17.95;11.15;;;3.80;99.90;;;;;;4145595;28;20038;-69
2021/01/07 10:48:00;;;;;;;17.13;10.85;;;3.80;99.90;;;;;;4142891;28;20033;-71
2021/01/07 10:50:03;;;;;;;18.25;10.77;;;3.80;99.90;;;;;;4164979;28;20044;-69
2021/01/07 10:52:07;;;;;;;20.13;12.18;;;3.90;99.90;;;;;;4152600;28;20054;-69
2021/01/07 10:54:11;;;;;;;16.40;10.18;;;3.80;99.90;;;;;;4151442;28;20044;-69
2021/01/07 10:56:35;;;;;;;17.95;10.43;;;3.80;99.90;;;;;;4151716;28;20033;-69
2021/01/07 10:59:13;;;;;;;16.73;10.07;;;3.90;99.90;;;;;;4143785;28;20038;-69
2021/01/07 11:01:27;;;;;;;18.00;10.88;;;3.80;99.90;;;;;;4144067;28;20064;-69
2021/01/07 11:03:50;;;;;;;17.08;10.68;;;3.90;99.90;;;;;;4149498;28;20102;-69
2021/01/07 11:06:02;;;;;;;15.40;9.73;;;3.90;99.90;;;;;;4134387;28;20444;-69
2021/01/07 11:08:22;;;;;;;18.88;11.48;;;3.90;99.90;;;;;;4137741;28;20034;-69